createdAt,value
2022-09-23T00:00:50.344Z,20.51
2022-09-23T00:01:54.629Z,20.51
2022-09-23T00:02:59.184Z,20.51
2022-09-23T00:04:03.670Z,20.5
2022-09-23T00:05:07.976Z,20.51
2022-09-23T00:06:12.229Z,20.5
2022-09-23T00:07:16.510Z,20.51
2022-09-23T00:08:20.768Z,20.5
2022-09-23T00:09:25.042Z,20.51
2022-09-23T00:10:29.360Z,20.51
2022-09-23T00:11:33.654Z,20.51
2022-09-23T00:12:37.915Z,20.5
2022-09-23T00:13:43.199Z,20.5
2022-09-23T00:14:47.480Z,20.51
2022-09-23T00:15:51.801Z,20.51
2022-09-23T00:16:56.110Z,20.5
2022-09-23T00:18:00.698Z,20.49
2022-09-23T00:19:04.998Z,20.49
2022-09-23T00:20:09.508Z,20.47
2022-09-23T00:21:13.805Z,20.47
2022-09-23T00:22:18.056Z,20.47
2022-09-23T00:23:22.312Z,20.49
2022-09-23T00:24:26.622Z,20.47
2022-09-23T00:25:30.933Z,20.48
2022-09-23T00:26:35.181Z,20.48
2022-09-23T00:27:39.452Z,20.48
2022-09-23T00:28:46.204Z,20.49
2022-09-23T00:29:50.462Z,20.5
2022-09-23T00:30:54.752Z,20.49
2022-09-23T00:31:59.249Z,20.49
2022-09-23T00:33:03.499Z,20.49
2022-09-23T00:34:07.773Z,20.48
2022-09-23T00:35:12.055Z,20.49
2022-09-23T00:36:16.341Z,20.48
2022-09-23T00:37:20.675Z,20.49
2022-09-23T00:38:24.929Z,20.48
2022-09-23T00:39:29.214Z,20.48
2022-09-23T00:40:33.496Z,20.48
2022-09-23T00:41:38.127Z,20.47
2022-09-23T00:42:42.439Z,20.48
2022-09-23T00:43:46.758Z,20.48
2022-09-23T00:44:51.053Z,20.47
2022-09-23T00:45:55.352Z,20.48
2022-09-23T00:46:59.794Z,20.47
2022-09-23T00:48:04.100Z,20.46
2022-09-23T00:49:08.407Z,20.47
2022-09-23T00:50:12.661Z,20.45
2022-09-23T00:51:16.931Z,20.46
2022-09-23T00:52:21.354Z,20.46
2022-09-23T00:53:25.600Z,20.46
2022-09-23T00:54:29.911Z,20.46
2022-09-23T00:55:34.203Z,20.46
2022-09-23T00:56:38.447Z,20.46
2022-09-23T00:57:42.723Z,20.45
2022-09-23T00:58:46.992Z,20.45
2022-09-23T00:59:51.268Z,20.45
2022-09-23T01:00:55.580Z,20.45
2022-09-23T01:02:00.235Z,20.46
2022-09-23T01:03:05.096Z,20.45
2022-09-23T01:04:09.385Z,20.45
2022-09-23T01:05:13.635Z,20.46
2022-09-23T01:06:17.977Z,20.47
2022-09-23T01:07:22.241Z,20.47
2022-09-23T01:08:26.536Z,20.46
2022-09-23T01:09:30.785Z,20.46
2022-09-23T01:10:35.099Z,20.46
2022-09-23T01:11:39.380Z,20.46
2022-09-23T01:12:43.637Z,20.46
2022-09-23T01:13:47.911Z,20.46
2022-09-23T01:14:52.169Z,20.46
2022-09-23T01:15:56.458Z,20.45
2022-09-23T01:17:01.743Z,20.45
2022-09-23T01:18:06.303Z,20.44
2022-09-23T01:19:10.580Z,20.44
2022-09-23T01:20:14.846Z,20.45
2022-09-23T01:21:19.117Z,20.45
2022-09-23T01:22:23.391Z,20.44
2022-09-23T01:23:27.697Z,20.44
2022-09-23T01:24:31.950Z,20.45
2022-09-23T01:25:36.207Z,20.45
2022-09-23T01:26:40.450Z,20.45
2022-09-23T01:27:44.734Z,20.45
2022-09-23T01:28:49.018Z,20.44
2022-09-23T01:29:53.287Z,20.44
2022-09-23T01:30:57.636Z,20.45
2022-09-23T01:32:02.193Z,20.45
2022-09-23T01:33:06.451Z,20.45
2022-09-23T01:34:10.721Z,20.45
2022-09-23T01:35:14.960Z,20.45
2022-09-23T01:36:19.248Z,20.45
2022-09-23T01:37:23.547Z,20.45
2022-09-23T01:38:27.878Z,20.44
2022-09-23T01:39:32.160Z,20.43
2022-09-23T01:40:36.493Z,20.44
2022-09-23T01:41:41.015Z,20.44
2022-09-23T01:42:45.286Z,20.42
2022-09-23T01:43:49.548Z,20.43
2022-09-23T01:44:53.792Z,20.43
2022-09-23T01:45:58.055Z,20.43
2022-09-23T01:47:02.397Z,20.44
2022-09-23T01:48:06.735Z,20.44
2022-09-23T01:49:11.217Z,20.43
2022-09-23T01:50:15.500Z,20.44
2022-09-23T01:51:19.747Z,20.43
2022-09-23T01:52:24.048Z,20.42
2022-09-23T01:53:28.309Z,20.43
2022-09-23T01:54:32.582Z,20.43
2022-09-23T01:55:36.874Z,20.42
2022-09-23T01:56:41.192Z,20.42
2022-09-23T01:57:45.440Z,20.43
2022-09-23T01:58:49.730Z,20.43
2022-09-23T01:59:54.013Z,20.43
2022-09-23T02:00:58.349Z,20.42
2022-09-23T02:02:02.883Z,20.42
2022-09-23T02:03:07.366Z,20.43
2022-09-23T02:04:11.667Z,20.42
2022-09-23T02:05:15.929Z,20.42
2022-09-23T02:06:20.210Z,20.42
2022-09-23T02:07:24.486Z,20.42
2022-09-23T02:08:28.767Z,20.41
2022-09-23T02:09:33.045Z,20.43
2022-09-23T02:10:37.298Z,20.42
2022-09-23T02:11:41.594Z,20.42
2022-09-23T02:12:45.852Z,20.42
2022-09-23T02:13:50.119Z,20.42
2022-09-23T02:14:54.368Z,20.41
2022-09-23T02:15:58.638Z,20.43
2022-09-23T02:17:02.948Z,20.43
2022-09-23T02:18:07.297Z,20.42
2022-09-23T02:19:11.559Z,20.42
2022-09-23T02:20:15.869Z,20.41
2022-09-23T02:21:20.119Z,20.42
2022-09-23T02:22:24.436Z,20.42
2022-09-23T02:23:28.691Z,20.42
2022-09-23T02:24:33.049Z,20.44
2022-09-23T02:25:37.288Z,20.45
2022-09-23T02:26:41.533Z,20.42
2022-09-23T02:27:45.831Z,20.42
2022-09-23T02:28:50.093Z,20.41
2022-09-23T02:29:54.363Z,20.42
2022-09-23T02:30:58.629Z,20.41
2022-09-23T02:32:02.921Z,20.41
2022-09-23T02:33:07.460Z,20.41
2022-09-23T02:34:11.763Z,20.43
2022-09-23T02:35:16.007Z,20.42
2022-09-23T02:36:20.268Z,20.41
2022-09-23T02:37:24.538Z,20.41
2022-09-23T02:38:28.824Z,20.41
2022-09-23T02:39:33.094Z,20.41
2022-09-23T02:40:37.401Z,20.4
2022-09-23T02:41:41.959Z,20.4
2022-09-23T02:42:46.455Z,20.4
2022-09-23T02:43:50.753Z,20.4
2022-09-23T02:44:55.015Z,20.4
2022-09-23T02:45:59.315Z,20.4
2022-09-23T02:47:03.788Z,20.39
2022-09-23T02:48:08.072Z,20.4
2022-09-23T02:49:12.327Z,20.4
2022-09-23T02:50:16.593Z,20.41
2022-09-23T02:51:20.845Z,20.42
2022-09-23T02:52:25.313Z,20.4
2022-09-23T02:53:29.562Z,20.4
2022-09-23T02:54:33.805Z,20.4
2022-09-23T02:55:38.193Z,20.4
2022-09-23T02:56:42.471Z,20.4
2022-09-23T02:57:46.768Z,20.4
2022-09-23T02:58:51.058Z,20.4
2022-09-23T02:59:55.331Z,20.4
2022-09-23T03:00:59.687Z,20.4
2022-09-23T03:02:04.320Z,20.4
2022-09-23T03:03:08.738Z,20.39
2022-09-23T03:04:12.992Z,20.4
2022-09-23T03:05:17.293Z,20.39
2022-09-23T03:06:21.602Z,20.39
2022-09-23T03:07:25.839Z,20.39
2022-09-23T03:08:30.093Z,20.39
2022-09-23T03:09:34.351Z,20.38
2022-09-23T03:10:38.635Z,20.37
2022-09-23T03:11:43.175Z,20.38
2022-09-23T03:12:47.460Z,20.38
2022-09-23T03:13:51.704Z,20.39
2022-09-23T03:14:55.953Z,20.38
2022-09-23T03:16:00.284Z,20.38
2022-09-23T03:17:04.762Z,20.39
2022-09-23T03:18:09.006Z,20.41
2022-09-23T03:19:13.309Z,20.44
2022-09-23T03:20:17.589Z,20.43
2022-09-23T03:21:21.866Z,20.41
2022-09-23T03:22:26.126Z,20.42
2022-09-23T03:23:30.412Z,20.42
2022-09-23T03:24:34.774Z,20.42
2022-09-23T03:25:39.162Z,20.41
2022-09-23T03:26:43.450Z,20.42
2022-09-23T03:27:47.788Z,20.41
2022-09-23T03:28:52.044Z,20.4
2022-09-23T03:29:56.306Z,20.4
2022-09-23T03:31:00.559Z,20.4
2022-09-23T03:32:04.868Z,20.41
2022-09-23T03:33:09.314Z,20.42
2022-09-23T03:34:13.627Z,20.41
2022-09-23T03:35:17.917Z,20.41
2022-09-23T03:36:22.176Z,20.41
2022-09-23T03:37:26.425Z,20.42
2022-09-23T03:38:30.677Z,20.41
2022-09-23T03:39:34.957Z,20.41
2022-09-23T03:40:40.335Z,20.41
2022-09-23T03:41:44.784Z,20.42
2022-09-23T03:42:49.086Z,20.42
2022-09-23T03:43:53.348Z,20.41
2022-09-23T03:44:57.648Z,20.42
2022-09-23T03:46:01.981Z,20.42
2022-09-23T03:47:06.537Z,20.43
2022-09-23T03:48:10.830Z,20.46
2022-09-23T03:49:15.090Z,20.45
2022-09-23T03:50:19.346Z,20.46
2022-09-23T03:51:23.613Z,20.47
2022-09-23T03:52:27.904Z,20.47
2022-09-23T03:53:32.201Z,20.48
2022-09-23T03:54:36.501Z,20.48
2022-09-23T03:55:40.777Z,20.48
2022-09-23T03:56:45.078Z,20.48
2022-09-23T03:57:49.328Z,20.5
2022-09-23T03:58:53.616Z,20.51
2022-09-23T03:59:57.907Z,20.5
2022-09-23T04:01:02.243Z,20.49
2022-09-23T04:02:06.718Z,20.48
2022-09-23T04:03:11.989Z,20.49
2022-09-23T04:04:16.357Z,20.48
2022-09-23T04:05:20.662Z,20.47
2022-09-23T04:06:24.956Z,20.5
2022-09-23T04:07:29.247Z,20.6
2022-09-23T04:08:33.494Z,20.66
2022-09-23T04:09:37.789Z,20.61
2022-09-23T04:10:42.075Z,20.57
2022-09-23T04:11:46.409Z,20.53
2022-09-23T04:12:50.678Z,20.48
2022-09-23T04:13:54.937Z,20.45
2022-09-23T04:14:59.198Z,20.42
2022-09-23T04:16:03.505Z,20.42
2022-09-23T04:17:08.008Z,20.42
2022-09-23T04:18:12.262Z,20.41
2022-09-23T04:19:16.532Z,20.39
2022-09-23T04:20:20.782Z,20.39
2022-09-23T04:21:25.043Z,20.4
2022-09-23T04:22:29.619Z,20.39
2022-09-23T04:23:33.907Z,20.38
2022-09-23T04:24:38.173Z,20.37
2022-09-23T04:25:42.471Z,20.35
2022-09-23T04:26:46.740Z,20.35
2022-09-23T04:27:51.022Z,20.34
2022-09-23T04:28:55.293Z,20.33
2022-09-23T04:29:59.547Z,20.33
2022-09-23T04:31:03.848Z,20.32
2022-09-23T04:32:08.322Z,20.32
2022-09-23T04:33:12.607Z,20.28
2022-09-23T04:34:16.914Z,20.29
2022-09-23T04:35:21.166Z,20.29
2022-09-23T04:36:25.426Z,20.28
2022-09-23T04:37:29.695Z,20.27
2022-09-23T04:38:34.205Z,20.28
2022-09-23T04:39:38.538Z,20.26
2022-09-23T04:40:42.897Z,20.24
2022-09-23T04:41:47.456Z,20.23
2022-09-23T04:42:51.743Z,20.23
2022-09-23T04:43:56.020Z,20.23
2022-09-23T04:45:00.301Z,20.22
2022-09-23T04:46:04.566Z,20.2
2022-09-23T04:47:08.884Z,20.2
2022-09-23T04:48:13.174Z,20.2
2022-09-23T04:49:17.432Z,20.18
2022-09-23T04:50:21.710Z,20.2
2022-09-23T04:51:25.956Z,20.2
2022-09-23T04:52:30.224Z,20.19
2022-09-23T04:53:34.651Z,20.2
2022-09-23T04:54:38.942Z,20.22
2022-09-23T04:55:43.210Z,20.23
2022-09-23T04:56:47.462Z,20.22
2022-09-23T04:57:51.746Z,20.22
2022-09-23T04:58:55.994Z,20.24
2022-09-23T05:00:00.275Z,20.22
2022-09-23T05:01:05.429Z,20.22
2022-09-23T05:02:10.054Z,20.22
2022-09-23T05:03:14.598Z,20.2
2022-09-23T05:04:18.846Z,20.19
2022-09-23T05:05:23.089Z,20.19
2022-09-23T05:06:27.371Z,20.2
2022-09-23T05:07:31.647Z,20.22
2022-09-23T05:08:35.959Z,20.22
2022-09-23T05:09:40.262Z,20.22
2022-09-23T05:10:44.510Z,20.21
2022-09-23T05:11:48.795Z,20.2
2022-09-23T05:12:56.999Z,20.17
2022-09-23T05:14:01.561Z,20.19
2022-09-23T05:15:05.854Z,20.16
2022-09-23T05:16:10.180Z,20.16
2022-09-23T05:17:14.729Z,20.17
2022-09-23T05:18:20.807Z,20.13
2022-09-23T05:19:25.161Z,20.12
2022-09-23T05:20:29.413Z,20.14
2022-09-23T05:21:33.688Z,20.14
2022-09-23T05:22:38.010Z,20.14
2022-09-23T05:23:42.277Z,20.13
2022-09-23T05:24:46.541Z,20.15
2022-09-23T05:25:51.072Z,20.16
2022-09-23T05:26:55.346Z,20.16
2022-09-23T05:27:59.624Z,20.14
2022-09-23T05:29:03.966Z,20.13
2022-09-23T05:30:08.697Z,20.13
2022-09-23T05:31:17.265Z,20.13
2022-09-23T05:32:24.464Z,20.16
2022-09-23T05:33:28.763Z,20.15
2022-09-23T05:34:33.078Z,20.2
2022-09-23T05:35:37.378Z,20.19
2022-09-23T05:36:41.624Z,20.19
2022-09-23T05:37:45.875Z,20.19
2022-09-23T05:38:50.277Z,20.17
2022-09-23T05:39:54.688Z,20.1
2022-09-23T05:40:59.018Z,20.1
2022-09-23T05:42:03.279Z,20.14
2022-09-23T05:43:07.563Z,20.15
2022-09-23T05:44:14.105Z,20.18
2022-09-23T05:45:18.489Z,20.17
2022-09-23T05:46:22.824Z,20.17
2022-09-23T05:47:27.270Z,20.17
2022-09-23T05:48:31.535Z,20.19
2022-09-23T05:49:55.576Z,20.18
2022-09-23T05:51:04.012Z,20.12
2022-09-23T05:52:08.275Z,20.13
2022-09-23T05:53:12.556Z,20.15
2022-09-23T05:54:16.812Z,20.14
2022-09-23T05:55:21.065Z,20.13
2022-09-23T05:56:25.412Z,20.11
2022-09-23T05:57:29.848Z,20.12
2022-09-23T05:58:34.093Z,20.12
2022-09-23T05:59:38.364Z,20.08
2022-09-23T06:00:42.656Z,20.07
2022-09-23T06:01:46.993Z,20.1
2022-09-23T06:02:54.459Z,20.12
2022-09-23T06:03:58.930Z,20.12
2022-09-23T06:05:03.417Z,20.11
2022-09-23T06:06:07.696Z,20.1
2022-09-23T06:07:11.986Z,20.12
2022-09-23T06:08:16.306Z,20.11
2022-09-23T06:09:20.647Z,20.09
2022-09-23T06:10:24.945Z,20.09
2022-09-23T06:11:29.239Z,20.08
2022-09-23T06:12:33.559Z,20.08
2022-09-23T06:13:37.837Z,20.08
2022-09-23T06:14:42.091Z,20.08
2022-09-23T06:15:46.414Z,20.07
2022-09-23T06:16:50.896Z,20.07
2022-09-23T06:17:55.189Z,20.06
2022-09-23T06:19:03.157Z,20.08
2022-09-23T06:20:10.263Z,20.08
2022-09-23T06:21:14.526Z,20.06
2022-09-23T06:22:18.787Z,20.04
2022-09-23T06:23:26.035Z,20.02
2022-09-23T06:24:31.684Z,20.05
2022-09-23T06:25:36.085Z,20.05
2022-09-23T06:26:40.340Z,20.07
2022-09-23T06:27:44.597Z,20.07
2022-09-23T06:28:48.843Z,20.07
2022-09-23T06:29:53.083Z,20.07
2022-09-23T06:30:57.465Z,20.06
2022-09-23T06:32:02.092Z,20.07
2022-09-23T06:33:06.494Z,20.08
2022-09-23T06:34:13.071Z,20.07
2022-09-23T06:35:26.835Z,20.09
2022-09-23T06:36:41.798Z,20.06
2022-09-23T06:37:49.683Z,20.07
2022-09-23T06:38:53.965Z,20.07
2022-09-23T06:39:58.224Z,20.08
2022-09-23T06:41:02.504Z,20.09
2022-09-23T06:42:06.795Z,20.07
2022-09-23T06:43:11.058Z,20.06
2022-09-23T06:44:15.329Z,20.05
2022-09-23T06:45:19.578Z,20.06
2022-09-23T06:46:23.913Z,20.05
2022-09-23T06:47:28.442Z,20.06
2022-09-23T06:48:32.756Z,20.07
2022-09-23T06:49:37.015Z,20.07
2022-09-23T06:50:41.274Z,20.08
2022-09-23T06:51:45.581Z,20.08
2022-09-23T06:52:49.844Z,20.08
2022-09-23T06:53:54.095Z,20.08
2022-09-23T06:54:58.379Z,20.08
2022-09-23T06:56:02.690Z,20.08
2022-09-23T06:57:07.014Z,20.09
2022-09-23T06:58:11.264Z,20.08
2022-09-23T06:59:15.532Z,20.07
2022-09-23T07:00:19.821Z,20.08
2022-09-23T07:01:24.141Z,20.08
2022-09-23T07:02:28.759Z,20.07
2022-09-23T07:03:34.008Z,20.08
2022-09-23T07:04:38.269Z,20.09
2022-09-23T07:05:42.547Z,20.09
2022-09-23T07:06:46.809Z,20.1
2022-09-23T07:07:51.085Z,20.09
2022-09-23T07:08:55.338Z,20.07
2022-09-23T07:09:59.615Z,20.09
2022-09-23T07:11:03.870Z,20.08
2022-09-23T07:12:08.171Z,20.09
2022-09-23T07:13:16.108Z,20.07
2022-09-23T07:14:20.553Z,20.1
2022-09-23T07:15:25.042Z,20.1
2022-09-23T07:16:29.301Z,20.1
2022-09-23T07:17:33.795Z,20.1
2022-09-23T07:18:38.107Z,20.08
2022-09-23T07:19:42.515Z,20.08
2022-09-23T07:20:46.808Z,20.09
2022-09-23T07:21:51.066Z,20.08
2022-09-23T07:22:55.371Z,20.09
2022-09-23T07:23:59.665Z,20.09
2022-09-23T07:25:03.965Z,20.11
2022-09-23T07:26:08.226Z,20.09
2022-09-23T07:27:12.487Z,20.11
2022-09-23T07:28:16.831Z,20.1
2022-09-23T07:29:21.098Z,20.11
2022-09-23T07:30:25.692Z,20.12
2022-09-23T07:31:38.201Z,20.11
2022-09-23T07:32:48.485Z,20.11
2022-09-23T07:33:53.422Z,20.11
2022-09-23T07:34:57.755Z,20.1
2022-09-23T07:36:02.009Z,20.12
2022-09-23T07:37:06.258Z,20.11
2022-09-23T07:38:10.504Z,20.11
2022-09-23T07:39:14.785Z,20.12
2022-09-23T07:40:19.092Z,20.1
2022-09-23T07:41:23.612Z,20.1
2022-09-23T07:42:27.913Z,20.09
2022-09-23T07:43:32.229Z,20.12
2022-09-23T07:44:36.559Z,20.11
2022-09-23T07:45:40.850Z,20.12
2022-09-23T07:46:45.243Z,20.14
2022-09-23T07:47:49.758Z,20.12
2022-09-23T07:48:54.305Z,20.12
2022-09-23T07:49:58.586Z,20.13
2022-09-23T07:51:02.866Z,20.16
2022-09-23T07:52:07.107Z,20.14
2022-09-23T07:53:11.384Z,20.14
2022-09-23T07:54:15.687Z,20.14
2022-09-23T07:55:21.062Z,20.16
2022-09-23T07:56:25.472Z,20.13
2022-09-23T07:57:29.832Z,20.12
2022-09-23T07:58:34.114Z,20.1
2022-09-23T07:59:38.473Z,20.08
2022-09-23T08:00:42.709Z,20.05
2022-09-23T08:01:47.001Z,20.06
2022-09-23T08:02:53.070Z,20.03
2022-09-23T08:03:57.881Z,20.06
2022-09-23T08:05:02.171Z,20.07
2022-09-23T08:06:06.456Z,20.05
2022-09-23T08:07:10.732Z,20.05
2022-09-23T08:08:14.979Z,20.04
2022-09-23T08:09:19.238Z,20.03
2022-09-23T08:10:23.508Z,20.06
2022-09-23T08:11:27.789Z,20.04
2022-09-23T08:12:32.087Z,20.06
2022-09-23T08:13:36.345Z,20.06
2022-09-23T08:14:40.661Z,20.04
2022-09-23T08:15:44.961Z,20.04
2022-09-23T08:16:49.329Z,20.03
2022-09-23T08:17:54.720Z,20.02
2022-09-23T08:18:59.043Z,20.04
2022-09-23T08:20:03.821Z,20.05
2022-09-23T08:21:08.080Z,20.05
2022-09-23T08:22:12.349Z,20.07
2022-09-23T08:23:16.644Z,20.06
2022-09-23T08:24:20.930Z,20.05
2022-09-23T08:25:25.188Z,20.05
2022-09-23T08:26:29.561Z,20.04
2022-09-23T08:27:34.055Z,20.02
2022-09-23T08:28:38.302Z,20.02
2022-09-23T08:29:42.640Z,20.02
2022-09-23T08:30:46.929Z,20.02
2022-09-23T08:31:51.381Z,20.02
2022-09-23T08:32:55.740Z,20.02
2022-09-23T08:34:00.131Z,20.01
2022-09-23T08:35:04.644Z,20.02
2022-09-23T08:36:08.905Z,20.01
2022-09-23T08:37:13.150Z,20.03
2022-09-23T08:38:17.438Z,20.02
2022-09-23T08:39:21.717Z,20.03
2022-09-23T08:40:26.022Z,20.04
2022-09-23T08:41:30.461Z,20.06
2022-09-23T08:42:34.718Z,20.04
2022-09-23T08:43:38.983Z,20.02
2022-09-23T08:44:43.262Z,20.02
2022-09-23T08:45:47.527Z,20.01
2022-09-23T08:46:51.884Z,20.04
2022-09-23T08:47:56.134Z,20.01
2022-09-23T08:49:00.407Z,20.05
2022-09-23T08:50:04.712Z,20.04
2022-09-23T08:51:09.002Z,20.06
2022-09-23T08:52:13.266Z,20.05
2022-09-23T08:53:17.530Z,20.05
2022-09-23T08:54:21.801Z,20.07
2022-09-23T08:55:26.073Z,20.08
2022-09-23T08:56:35.360Z,20.08
2022-09-23T08:57:39.793Z,20.07
2022-09-23T08:58:44.075Z,20.07
2022-09-23T08:59:48.414Z,20.07
2022-09-23T09:00:52.711Z,20.09
2022-09-23T09:01:56.995Z,20.1
2022-09-23T09:03:01.246Z,20.07
2022-09-23T09:04:08.354Z,20.07
2022-09-23T09:05:16.101Z,20.08
2022-09-23T09:06:20.394Z,20.07
2022-09-23T09:07:36.042Z,20.07
2022-09-23T09:08:41.787Z,20.09
2022-09-23T09:09:46.101Z,20.09
2022-09-23T09:10:50.344Z,20.07
2022-09-23T09:11:54.643Z,20.09
2022-09-23T09:12:58.918Z,20.09
2022-09-23T09:14:05.587Z,20.07
2022-09-23T09:15:09.843Z,20.08
2022-09-23T09:16:14.199Z,20.09
2022-09-23T09:17:23.432Z,20.09
2022-09-23T09:18:27.697Z,20.09
2022-09-23T09:19:31.949Z,20.11
2022-09-23T09:20:36.261Z,20.11
2022-09-23T09:21:40.568Z,20.1
2022-09-23T09:22:44.826Z,20.07
2022-09-23T09:23:49.075Z,20.08
2022-09-23T09:24:53.355Z,20.07
2022-09-23T09:25:57.634Z,20.12
2022-09-23T09:27:01.959Z,20.11
2022-09-23T09:28:06.228Z,20.11
2022-09-23T09:29:31.065Z,20.09
2022-09-23T09:30:39.328Z,20.06
2022-09-23T09:31:50.042Z,20.08
2022-09-23T09:32:54.307Z,20.06
2022-09-23T09:33:58.576Z,20.05
2022-09-23T09:35:02.865Z,20.06
2022-09-23T09:36:07.122Z,20.04
2022-09-23T09:37:11.583Z,20.04
2022-09-23T09:38:15.923Z,20.03
2022-09-23T09:39:24.146Z,20.02
2022-09-23T09:40:30.323Z,20.02
2022-09-23T09:41:34.851Z,20.03
2022-09-23T09:42:39.116Z,20.04
2022-09-23T09:43:44.233Z,20.02
2022-09-23T09:44:48.638Z,20.03
2022-09-23T09:45:57.664Z,20.04
2022-09-23T09:47:02.343Z,20.04
2022-09-23T09:48:06.853Z,20.03
2022-09-23T09:49:11.113Z,20.03
2022-09-23T09:50:15.397Z,20.02
2022-09-23T09:51:19.686Z,19.99
2022-09-23T09:52:24.025Z,19.99
2022-09-23T09:53:28.281Z,19.99
2022-09-23T09:54:32.550Z,19.98
2022-09-23T09:55:37.878Z,19.99
2022-09-23T09:56:42.218Z,19.98
2022-09-23T09:57:46.618Z,19.96
2022-09-23T09:58:50.893Z,19.95
2022-09-23T09:59:55.197Z,19.95
2022-09-23T10:00:59.566Z,19.96
2022-09-23T10:02:04.056Z,19.96
2022-09-23T10:03:08.331Z,19.99
2022-09-23T10:04:12.660Z,20.01
2022-09-23T10:05:17.056Z,20.01
2022-09-23T10:06:21.347Z,20
2022-09-23T10:07:25.612Z,20
2022-09-23T10:08:29.878Z,20.01
2022-09-23T10:09:34.233Z,20.03
2022-09-23T10:10:38.493Z,20.04
2022-09-23T10:11:42.782Z,20.04
2022-09-23T10:12:47.064Z,20.06
2022-09-23T10:13:51.313Z,20.04
2022-09-23T10:14:55.637Z,20.03
2022-09-23T10:15:59.977Z,20.02
2022-09-23T10:17:04.283Z,20.02
2022-09-23T10:18:08.973Z,20.01
2022-09-23T10:19:13.270Z,20.03
2022-09-23T10:20:17.567Z,20.01
2022-09-23T10:21:25.581Z,20
2022-09-23T10:22:31.815Z,20
2022-09-23T10:23:36.113Z,20
2022-09-23T10:24:40.376Z,19.98
2022-09-23T10:25:44.663Z,19.99
2022-09-23T10:26:48.924Z,19.98
2022-09-23T10:27:53.225Z,19.98
2022-09-23T10:28:57.465Z,19.99
2022-09-23T10:30:01.733Z,19.98
2022-09-23T10:31:06.124Z,19.98
2022-09-23T10:32:10.629Z,19.98
2022-09-23T10:33:14.945Z,19.98
2022-09-23T10:34:19.226Z,19.98
2022-09-23T10:35:23.509Z,19.97
2022-09-23T10:36:27.834Z,19.97
2022-09-23T10:37:32.133Z,19.97
2022-09-23T10:38:36.429Z,19.98
2022-09-23T10:39:40.687Z,19.97
2022-09-23T10:40:45.029Z,19.95
2022-09-23T10:41:49.870Z,19.94
2022-09-23T10:42:54.174Z,19.94
2022-09-23T10:43:58.435Z,19.98
2022-09-23T10:45:03.017Z,19.97
2022-09-23T10:46:07.362Z,19.98
2022-09-23T10:47:11.892Z,19.99
2022-09-23T10:48:16.167Z,19.99
2022-09-23T10:49:20.454Z,20.01
2022-09-23T10:50:24.744Z,20.03
2022-09-23T10:51:29.177Z,20.02
2022-09-23T10:52:33.448Z,20.03
2022-09-23T10:53:37.954Z,20.01
2022-09-23T10:54:42.210Z,20
2022-09-23T10:55:46.487Z,20.01
2022-09-23T10:56:50.740Z,20.01
2022-09-23T10:57:55.017Z,20.01
2022-09-23T10:58:59.275Z,20.01
2022-09-23T11:00:03.578Z,20
2022-09-23T11:01:07.898Z,20.01
2022-09-23T11:02:12.462Z,20.02
2022-09-23T11:03:17.160Z,20.01
2022-09-23T11:04:21.427Z,20
2022-09-23T11:05:25.952Z,20.01
2022-09-23T11:06:30.237Z,20.02
2022-09-23T11:07:37.053Z,20.04
2022-09-23T11:08:41.622Z,20.04
2022-09-23T11:09:45.874Z,20.04
2022-09-23T11:10:50.155Z,20.03
2022-09-23T11:11:54.511Z,20.03
2022-09-23T11:12:58.797Z,20.03
2022-09-23T11:14:03.081Z,20.04
2022-09-23T11:15:07.647Z,20.05
2022-09-23T11:16:11.995Z,20.05
2022-09-23T11:17:16.600Z,20.05
2022-09-23T11:18:20.916Z,20.05
2022-09-23T11:19:25.200Z,20.07
2022-09-23T11:20:29.460Z,20.05
2022-09-23T11:21:33.770Z,20.04
2022-09-23T11:22:38.342Z,20.07
2022-09-23T11:23:42.667Z,20.08
2022-09-23T11:24:46.923Z,20.09
2022-09-23T11:25:51.256Z,20.1
2022-09-23T11:26:55.561Z,20.1
2022-09-23T11:27:59.828Z,20.1
2022-09-23T11:29:04.443Z,20.1
2022-09-23T11:30:08.836Z,20.1
2022-09-23T11:31:13.292Z,20.11
2022-09-23T11:32:17.717Z,20.12
2022-09-23T11:33:21.983Z,20.11
2022-09-23T11:34:26.266Z,20.14
2022-09-23T11:35:30.569Z,20.13
2022-09-23T11:36:34.876Z,20.14
2022-09-23T11:37:39.166Z,20.14
2022-09-23T11:38:43.540Z,20.13
2022-09-23T11:39:47.861Z,20.12
2022-09-23T11:40:52.196Z,20.11
2022-09-23T11:41:56.742Z,20.11
2022-09-23T11:43:01.013Z,20.11
2022-09-23T11:44:05.281Z,20.12
2022-09-23T11:45:09.824Z,20.11
2022-09-23T11:46:14.261Z,20.11
2022-09-23T11:47:18.863Z,20.09
2022-09-23T11:48:23.114Z,20.08
2022-09-23T11:49:27.397Z,20.07
2022-09-23T11:50:31.710Z,20.06
2022-09-23T11:51:35.969Z,20.06
2022-09-23T11:52:40.288Z,20.05
2022-09-23T11:53:44.541Z,20.05
2022-09-23T11:54:48.807Z,20.05
2022-09-23T11:55:57.682Z,20.05
2022-09-23T11:57:02.534Z,20.06
2022-09-23T11:58:19.484Z,20.06
2022-09-23T11:59:37.781Z,20.07
2022-09-23T12:00:47.112Z,20.09
2022-09-23T12:02:14.953Z,20.1
2022-09-23T12:03:41.113Z,20.08
2022-09-23T12:04:56.599Z,20.11
2022-09-23T12:06:02.723Z,20.12
2022-09-23T12:07:07.010Z,20.15
2022-09-23T12:08:11.270Z,20.14
2022-09-23T12:09:15.569Z,20.15
2022-09-23T12:10:19.881Z,20.15
2022-09-23T12:11:24.119Z,20.16
2022-09-23T12:12:28.395Z,20.16
2022-09-23T12:13:32.691Z,20.16
2022-09-23T12:14:36.968Z,20.17
2022-09-23T12:15:41.344Z,20.18
2022-09-23T12:16:45.668Z,20.21
2022-09-23T12:17:50.159Z,20.22
2022-09-23T12:18:54.505Z,20.23
2022-09-23T12:19:58.783Z,20.25
2022-09-23T12:21:03.091Z,20.26
2022-09-23T12:22:07.387Z,20.26
2022-09-23T12:23:11.687Z,20.28
2022-09-23T12:24:19.099Z,20.3
2022-09-23T12:25:23.574Z,20.27
2022-09-23T12:26:27.904Z,20.28
2022-09-23T12:27:32.232Z,20.28
2022-09-23T12:28:36.486Z,20.29
2022-09-23T12:29:40.761Z,20.27
2022-09-23T12:30:45.080Z,20.31
2022-09-23T12:31:49.468Z,20.33
2022-09-23T12:32:53.756Z,20.34
2022-09-23T12:33:58.018Z,20.34
2022-09-23T12:35:02.280Z,20.37
2022-09-23T12:36:06.542Z,20.38
2022-09-23T12:37:10.843Z,20.38
2022-09-23T12:38:15.093Z,20.39
2022-09-23T12:39:19.411Z,20.4
2022-09-23T12:40:23.775Z,20.41
2022-09-23T12:41:28.249Z,20.41
2022-09-23T12:42:32.487Z,20.41
2022-09-23T12:43:36.764Z,20.43
2022-09-23T12:44:41.029Z,20.44
2022-09-23T12:45:45.393Z,20.42
2022-09-23T12:46:49.783Z,20.39
2022-09-23T12:47:54.120Z,20.37
2022-09-23T12:48:58.426Z,20.4
2022-09-23T12:50:02.677Z,20.43
2022-09-23T12:51:06.950Z,20.45
2022-09-23T12:52:11.224Z,20.44
2022-09-23T12:53:15.518Z,20.46
2022-09-23T12:54:19.855Z,20.48
2022-09-23T12:55:24.137Z,20.48
2022-09-23T12:56:28.425Z,20.47
2022-09-23T12:57:32.712Z,20.46
2022-09-23T12:58:37.194Z,20.47
2022-09-23T12:59:41.465Z,20.48
2022-09-23T13:00:45.829Z,20.48
2022-09-23T13:01:50.423Z,20.51
2022-09-23T13:02:55.154Z,20.5
2022-09-23T13:03:59.402Z,20.51
2022-09-23T13:05:03.735Z,20.52
2022-09-23T13:06:08.008Z,20.55
2022-09-23T13:07:12.317Z,20.54
2022-09-23T13:08:16.581Z,20.52
2022-09-23T13:09:20.870Z,20.5
2022-09-23T13:10:25.146Z,20.49
2022-09-23T13:11:29.641Z,20.48
2022-09-23T13:12:33.972Z,20.47
2022-09-23T13:13:38.270Z,20.46
2022-09-23T13:14:42.578Z,20.45
2022-09-23T13:15:46.859Z,20.44
2022-09-23T13:16:51.211Z,20.41
2022-09-23T13:17:55.623Z,20.4
2022-09-23T13:18:59.929Z,20.39
2022-09-23T13:20:04.221Z,20.38
2022-09-23T13:21:08.605Z,20.38
2022-09-23T13:22:12.851Z,20.39
2022-09-23T13:23:17.291Z,20.39
2022-09-23T13:24:21.818Z,20.41
2022-09-23T13:25:26.091Z,20.4
2022-09-23T13:26:30.388Z,20.42
2022-09-23T13:27:34.668Z,20.43
2022-09-23T13:28:38.955Z,20.43
2022-09-23T13:29:43.301Z,20.42
2022-09-23T13:30:47.588Z,20.42
2022-09-23T13:31:51.900Z,20.41
2022-09-23T13:32:56.322Z,20.41
2022-09-23T13:34:00.627Z,20.42
2022-09-23T13:35:05.047Z,20.47
2022-09-23T13:36:09.320Z,20.48
2022-09-23T13:37:13.575Z,20.51
2022-09-23T13:38:24.553Z,20.53
2022-09-23T13:39:28.926Z,20.52
2022-09-23T13:40:33.516Z,20.5
2022-09-23T13:41:38.035Z,20.48
2022-09-23T13:42:42.361Z,20.49
2022-09-23T13:43:46.655Z,20.49
2022-09-23T13:44:50.988Z,20.49
2022-09-23T13:45:55.376Z,20.48
2022-09-23T13:46:59.810Z,20.46
2022-09-23T13:48:04.106Z,20.45
2022-09-23T13:49:08.489Z,20.44
2022-09-23T13:50:12.785Z,20.43
2022-09-23T13:51:17.527Z,20.43
2022-09-23T13:52:21.836Z,20.42
2022-09-23T13:53:26.138Z,20.44
2022-09-23T13:54:30.440Z,20.44
2022-09-23T13:55:34.707Z,20.43
2022-09-23T13:56:38.946Z,20.42